Flight Track Log - Related Links

Times and Time Zones

All times are in EST time to prevent confusion due to time zone crossing. See the CES5426 flight status page for this flight to view local times or setup timezone preferences in your user account.

Time Position Orientation Groundspeed Altitude Reporting Facility
EST Latitude Longitude Course Direction KTS MPH feet Rate Location/Type
Fri 05:03:00 AM 30.1938 109.8957 80° East  Level Estimated
Fri 05:04:00 AM 30.2135 110.0443 81° East  Level Estimated
Fri 05:05:00 AM 30.2330 110.1930 81° East  Level Estimated
Fri 05:06:00 AM 30.2523 110.3418 81° East  Level Estimated
Fri 05:07:00 AM 30.2715 110.4907 81° East  Level Estimated
Fri 05:08:00 AM 30.2904 110.6395 82° East  Level Estimated
Fri 05:09:00 AM 30.3092 110.7885 82° East  Level Estimated
Fri 05:10:00 AM 30.3279 110.9375 82° East  Level Estimated
Fri 05:11:00 AM 30.3464 111.0866 82° East  Level Estimated
Fri 05:12:00 AM 30.3647 111.2357 82° East  Level Estimated
Fri 05:13:00 AM 30.3828 111.3849 82° East  Level Estimated
Fri 05:14:00 AM 30.4008 111.5341 82° East  Level Estimated
Fri 05:15:00 AM 30.4186 111.6834 82° East  Level Estimated
Fri 05:16:00 AM 30.4362 111.8327 82° East  Level Estimated
Fri 05:17:00 AM 30.4537 111.9821 82° East  Level Estimated
Fri 05:18:00 AM 30.4710 112.1316 82° East  Level Estimated
Fri 05:19:00 AM 30.4881 112.2811 82° East  Level Estimated
Fri 05:20:00 AM 30.5050 112.4306 82° East  Level Estimated
Fri 05:21:00 AM 30.5218 112.5802 83° East  Level Estimated
Fri 05:22:00 AM 30.5384 112.7299 83° East  Level Estimated
Fri 05:23:00 AM 30.5549 112.8796 83° East  Level Estimated
Fri 05:24:00 AM 30.5711 113.0293 83° East  Level Estimated
Fri 05:25:00 AM 30.5872 113.1791 83° East  Level Estimated
Fri 05:26:00 AM 30.6031 113.3290 83° East  Level Estimated
Fri 05:27:00 AM 30.6189 113.4789 83° East  Level Estimated
Fri 05:28:00 AM 30.6345 113.6288 83° East  Level Estimated
Fri 05:29:00 AM 30.6499 113.7788 83° East  Level Estimated
Fri 05:30:00 AM 30.6651 113.9289 83° East  Level Estimated
Fri 05:31:00 AM 30.6801 114.0790 83° East  Level Estimated
Fri 05:32:00 AM 30.6950 114.2291 83° East  Level Estimated
Fri 05:33:00 AM 30.7097 114.3793 83° East  Level Estimated
Fri 05:34:00 AM 30.7243 114.5295 84° East  Level Estimated
Fri 05:35:00 AM 30.7387 114.6798 84° East  Level Estimated
Fri 05:36:00 AM 30.7529 114.8301 84° East  Level Estimated
Fri 05:37:00 AM 30.7669 114.9805 84° East  Level Estimated
Fri 05:38:00 AM 30.7807 115.1309 84° East  Level Estimated
Fri 05:39:00 AM 30.7944 115.2814 84° East  Level Estimated
Fri 05:40:00 AM 30.8079 115.4319 84° East  Level Estimated
Fri 05:41:00 AM 30.8212 115.5824 84° East  Level Estimated
Fri 05:42:00 AM 30.8344 115.7330 84° East  Level Estimated
Fri 05:43:00 AM 30.8474 115.8836 84° East  Level Estimated
Fri 05:44:00 AM 30.8602 116.0343 84° East  Level Estimated
Fri 05:45:00 AM 30.8728 116.1850 84° East  Level Estimated
Fri 05:46:00 AM 30.8853 116.3357 84° East  Level Estimated
Fri 05:47:00 AM 30.8975 116.4865 85° East  Level Estimated
Fri 05:48:00 AM 30.9096 116.6373 85° East  Level Estimated
Fri 05:49:00 AM 30.9216 116.7882 85° East  Level Estimated
Fri 05:50:00 AM 30.9333 116.9391 85° East  Level Estimated
Fri 05:51:00 AM 30.9449 117.0900 85° East  Level Estimated
Fri 05:52:00 AM 30.9563 117.2410 85° East  Level Estimated
Fri 05:53:00 AM 30.9675 117.3920 85° East  Level Estimated
Fri 05:54:00 AM 30.9786 117.5430 85° East  Level Estimated
Fri 05:55:00 AM 30.9895 117.6941 85° East  Level Estimated
Fri 05:56:00 AM 31.0002 117.8452 85° East  Level Estimated
Fri 05:57:00 AM 31.0107 117.9963 85° East  Level Estimated
Fri 05:58:00 AM 31.0210 118.1475 85° East  Level Estimated
Fri 05:59:00 AM 31.0312 118.2987 85° East  Level Estimated
Fri 06:00:00 AM 31.0412 118.4499 86° East  Level Estimated
Fri 06:01:00 AM 31.0510 118.6012 86° East  Level Estimated
Fri 06:02:00 AM 31.0607 118.7525 86° East  Level Estimated
Fri 06:03:00 AM 31.0702 118.9038 86° East  Level Estimated
Fri 06:04:00 AM 31.0795 119.0552 86° East  Level Estimated
Fri 06:05:00 AM 31.0886 119.2066 86° East  Level Estimated
Fri 06:06:00 AM 31.0975 119.3580 86° East  Level Estimated
Fri 06:07:00 AM 31.1063 119.5095 86° East  Level Estimated
Fri 06:08:00 AM 31.1148 119.6609 86° East  Level Estimated
Fri 06:09:00 AM 31.1232 119.8124 86° East  Level Estimated
Fri 06:10:00 AM 31.1315 119.9640 86° East  Level Estimated
Fri 06:11:00 AM 31.1395 120.1155 86° East  Level Estimated
Fri 06:12:00 AM 31.1474 120.2671 86° East  Level Estimated
Fri 06:13:00 AM 31.1551 120.4187 87° East  Level Estimated
Fri 06:14:00 AM 31.1626 120.5703 87° East  Level Estimated
Fri 06:15:00 AM 31.1700 120.7220 87° East  Level Estimated
Fri 06:16:00 AM 31.1771 120.8736 87° East  Level Estimated
Fri 06:17:00 AM 31.1841 121.0254 87° East  Level Estimated
Fri 06:18:00 AM 31.1909 121.1771 87° East  Level Estimated
Fri 06:19:00 AM 31.1975 121.3288 87° East  Level Estimated
Fri 06:20:00 AM 31.1979 121.3363 87° East  Level Estimated
Fri 06:21:00 AM 31.1979 121.3363 350° North  Level Estimated
Fri 06:22:00 AM 31.1979 121.3363 350° North  Level Estimated
Fri 06:23:00 AM 31.1979 121.3363 350° North  Level Estimated
Fri 06:24:00 AM 31.1979 121.3363 350° North  Level Estimated
Fri 06:25:00 AM 31.1979 121.3363 350° North  Level Estimated
Fri 06:26:00 AM 31.1979 121.3363 350° North  Level Estimated
Fri 06:27:00 AM 31.1979 121.3363 350° North  Level Estimated
Fri 06:28:00 AM 31.1979 121.3363 350° North  Level Estimated
Fri 06:29:00 AM 31.1979 121.3363 350° North  Level Estimated
Fri 06:30:00 AM 31.1979 121.3363 350° North  Level Estimated
Fri 06:31:00 AM 31.1979 121.3363 350° North  Level Estimated
Fri 06:32:00 AM 31.1979 121.3363 350° North  Level Estimated
Fri 06:33:00 AM 31.1979 121.3363 350° North  Level Estimated
Fri 06:34:00 AM 31.1979 121.3363 350° North  Level Estimated
Fri 06:35:00 AM 31.1979 121.3363 350° North  Level Estimated

Login

Don't have an account? Register now (free) for customized features, flight alerts, and more!